Time;durP1;ratioP1;P1;durP2;ratioP2;P2;SDS_P1;SDS_P2;PMS_P1;PMS_P2;Temp;Humidity;BMP_temperature;BMP_pressure;BME280_temperature;BME280_humidity;BME280_pressure;Samples;Min_cycle;Max_cycle;Signal;HPM_P1;HPM_P2
2023/05/07 00:01:49;;;;;;;32.85;24.27;;;13.30;99.90;;;;;;4956714;28;94814;-76
2023/05/07 00:04:17;;;;;;;35.08;25.33;;;13.30;99.90;;;;;;4975553;28;92457;-76
2023/05/07 00:06:44;;;;;;;34.78;26.40;;;13.20;99.90;;;;;;4974080;28;93147;-76
2023/05/07 00:09:11;;;;;;;29.33;24.17;;;13.20;99.90;;;;;;4973330;28;95549;-76
2023/05/07 00:11:38;;;;;;;33.97;24.15;;;13.20;99.90;;;;;;4974242;28;92496;-77
2023/05/07 00:14:05;;;;;;;28.23;21.77;;;13.20;99.90;;;;;;4973721;28;92492;-77
2023/05/07 00:16:31;;;;;;;30.73;23.38;;;13.20;99.90;;;;;;4974781;28;104793;-76
2023/05/07 00:18:58;;;;;;;32.78;24.25;;;13.10;99.90;;;;;;4975221;28;93166;-76
2023/05/07 00:21:28;;;;;;;29.15;22.83;;;13.10;99.90;;;;;;4974092;28;92513;-76
2023/05/07 00:23:55;;;;;;;29.13;23.55;;;13.10;99.90;;;;;;4975365;28;92913;-76
2023/05/07 00:26:22;;;;;;;32.97;24.52;;;13.10;99.90;;;;;;4956129;28;98113;-76
2023/05/07 00:28:50;;;;;;;29.92;25.13;;;13.00;99.90;;;;;;4957582;28;96485;-76
2023/05/07 00:31:17;;;;;;;30.33;25.80;;;13.00;99.90;;;;;;4973807;28;93237;-76
2023/05/07 00:33:44;;;;;;;29.42;23.52;;;12.90;99.90;;;;;;4957656;28;92520;-76
2023/05/07 00:36:11;;;;;;;30.35;25.17;;;12.90;99.90;;;;;;4974618;28;93178;-76
2023/05/07 00:38:39;;;;;;;31.50;25.77;;;12.90;99.90;;;;;;4973511;28;95682;-76
2023/05/07 00:41:06;;;;;;;33.47;25.63;;;12.80;99.90;;;;;;4973195;28;102150;-76
2023/05/07 00:43:33;;;;;;;34.05;26.33;;;12.80;99.90;;;;;;4957871;28;91741;-76
2023/05/07 00:46:00;;;;;;;32.70;24.90;;;12.80;99.90;;;;;;4973360;28;95211;-77
2023/05/07 00:48:28;;;;;;;34.50;24.48;;;12.70;99.90;;;;;;4973656;28;93967;-77
2023/05/07 00:50:55;;;;;;;34.47;25.63;;;12.70;99.90;;;;;;4972216;28;94901;-76
2023/05/07 00:53:22;;;;;;;32.70;25.88;;;12.70;99.90;;;;;;4973384;28;92593;-76
2023/05/07 00:55:49;;;;;;;32.17;25.55;;;12.60;99.90;;;;;;4957179;28;95756;-76
2023/05/07 00:58:17;;;;;;;36.40;27.17;;;12.60;99.90;;;;;;4973344;28;93019;-76
2023/05/07 01:00:43;;;;;;;34.45;26.15;;;12.60;99.90;;;;;;4974901;28;92641;-76
2023/05/07 01:03:10;;;;;;;33.28;26.83;;;12.60;99.90;;;;;;4957311;28;92514;-76
2023/05/07 01:05:38;;;;;;;33.95;25.42;;;12.60;99.90;;;;;;4973592;28;93492;-76
2023/05/07 01:08:05;;;;;;;34.17;25.90;;;12.50;99.90;;;;;;4973400;28;100704;-76
2023/05/07 01:10:32;;;;;;;33.60;26.13;;;12.50;99.90;;;;;;4976713;28;92389;-76
2023/05/07 01:13:00;;;;;;;34.67;27.13;;;12.50;99.90;;;;;;4976812;28;92440;-76
2023/05/07 01:15:27;;;;;;;39.00;27.50;;;12.50;99.90;;;;;;4976532;28;95552;-76
2023/05/07 01:17:56;;;;;;;37.05;27.70;;;12.50;99.90;;;;;;4976297;28;97805;-77
2023/05/07 01:20:30;;;;;;;37.33;27.80;;;12.50;99.90;;;;;;4960713;28;92446;-76
2023/05/07 01:23:00;;;;;;;40.20;28.25;;;12.50;99.90;;;;;;4977003;28;92844;-76
2023/05/07 01:25:27;;;;;;;39.08;28.02;;;12.40;99.90;;;;;;4944272;28;95700;-76
2023/05/07 01:27:59;;;;;;;38.15;27.95;;;12.40;99.90;;;;;;4976438;28;95465;-76
2023/05/07 01:30:30;;;;;;;41.08;29.10;;;12.40;99.90;;;;;;4960281;28;92650;-76
2023/05/07 01:33:04;;;;;;;39.22;28.92;;;12.40;99.90;;;;;;4960705;28;91778;-76
2023/05/07 01:35:37;;;;;;;39.63;28.05;;;12.40;99.90;;;;;;4976227;28;95948;-76
2023/05/07 01:38:05;;;;;;;39.65;29.70;;;12.40;99.90;;;;;;4960342;28;93020;-76
2023/05/07 01:40:34;;;;;;;42.60;30.55;;;12.40;99.90;;;;;;4958696;28;94868;-76
2023/05/07 01:43:02;;;;;;;45.00;31.35;;;12.30;99.90;;;;;;4959860;28;92650;-76
2023/05/07 01:45:32;;;;;;;41.80;29.83;;;12.30;99.90;;;;;;4976039;28;95697;-76
2023/05/07 01:47:59;;;;;;;42.00;30.30;;;12.30;99.90;;;;;;4976034;28;95852;-77
2023/05/07 01:50:27;;;;;;;41.35;31.73;;;12.30;99.90;;;;;;4977323;28;92932;-76
2023/05/07 01:52:54;;;;;;;42.50;31.83;;;12.30;99.90;;;;;;4977534;28;92437;-76
2023/05/07 01:55:21;;;;;;;48.13;32.30;;;12.30;99.90;;;;;;4959418;28;95899;-76
2023/05/07 01:57:48;;;;;;;48.10;32.63;;;12.30;99.90;;;;;;4976412;28;96049;-76
2023/05/07 02:00:16;;;;;;;48.17;31.75;;;12.20;99.90;;;;;;4975732;28;92497;-77
2023/05/07 02:02:44;;;;;;;47.95;32.25;;;12.20;99.90;;;;;;4960281;28;92549;-76
2023/05/07 02:05:23;;;;;;;49.53;33.78;;;12.20;99.90;;;;;;4959727;28;98576;-76
2023/05/07 02:07:57;;;;;;;50.63;33.28;;;12.20;99.90;;;;;;4975656;28;98297;-76
2023/05/07 02:10:26;;;;;;;55.30;32.47;;;12.20;99.90;;;;;;4975445;28;92554;-76
2023/05/07 02:12:53;;;;;;;53.42;33.95;;;12.20;99.90;;;;;;4959979;28;92911;-76
2023/05/07 02:15:20;;;;;;;51.15;33.53;;;12.20;99.90;;;;;;4975649;28;93287;-76
2023/05/07 02:18:18;;;;;;;57.55;34.15;;;12.20;99.90;;;;;;4959596;28;95418;-76
2023/05/07 02:20:45;;;;;;;60.00;35.55;;;12.20;99.90;;;;;;4962111;28;92567;-76
2023/05/07 02:23:12;;;;;;;54.53;34.28;;;12.20;99.90;;;;;;4976021;28;91745;-76
2023/05/07 02:25:39;;;;;;;57.75;34.83;;;12.20;99.90;;;;;;4975477;28;93274;-76
2023/05/07 02:28:06;;;;;;;58.03;35.63;;;12.10;99.90;;;;;;4959080;28;95713;-77
2023/05/07 02:30:42;;;;;;;53.38;34.92;;;12.10;99.90;;;;;;4944518;28;94929;-76
2023/05/07 02:33:12;;;;;;;61.50;37.20;;;12.00;99.90;;;;;;4975540;28;92532;-76
2023/05/07 02:35:40;;;;;;;57.40;36.00;;;12.10;99.90;;;;;;4943328;28;95153;-77
2023/05/07 02:38:07;;;;;;;59.08;36.17;;;12.00;99.90;;;;;;4959003;28;95704;-76
2023/05/07 02:40:38;;;;;;;59.45;35.60;;;12.00;99.90;;;;;;4958915;28;92497;-76
2023/05/07 02:43:06;;;;;;;60.90;36.67;;;12.00;99.90;;;;;;4975276;28;92401;-76
2023/05/07 02:45:33;;;;;;;57.20;37.05;;;12.00;99.90;;;;;;4974866;28;96360;-77
2023/05/07 02:48:01;;;;;;;64.22;36.35;;;12.00;99.90;;;;;;4975488;28;95456;-76
2023/05/07 02:50:29;;;;;;;63.00;40.05;;;11.90;99.90;;;;;;4974801;28;92481;-76
2023/05/07 02:52:56;;;;;;;62.53;36.78;;;12.00;99.90;;;;;;4975181;28;92536;-76
2023/05/07 02:55:23;;;;;;;54.55;34.45;;;12.00;99.90;;;;;;4941155;28;98051;-76
2023/05/07 02:57:50;;;;;;;59.47;39.50;;;12.00;99.90;;;;;;4974584;28;98006;-76
2023/05/07 03:00:19;;;;;;;62.67;40.25;;;12.00;99.90;;;;;;4975021;28;92528;-76
2023/05/07 03:02:54;;;;;;;56.20;36.22;;;12.00;99.90;;;;;;4975211;28;92862;-76
2023/05/07 03:05:21;;;;;;;61.88;36.10;;;12.00;99.90;;;;;;4958631;28;95797;-76
2023/05/07 03:07:48;;;;;;;52.67;35.47;;;11.90;99.90;;;;;;4974861;28;93193;-76
2023/05/07 03:10:15;;;;;;;52.80;34.88;;;11.90;99.90;;;;;;4974634;28;92483;-76
2023/05/07 03:12:42;;;;;;;60.28;36.03;;;11.90;99.90;;;;;;4974947;28;91838;-76
2023/05/07 03:15:14;;;;;;;54.53;35.25;;;11.90;99.90;;;;;;4974694;28;94377;-76
2023/05/07 03:17:41;;;;;;;52.50;33.28;;;11.90;99.90;;;;;;4974290;28;95068;-76
2023/05/07 03:20:09;;;;;;;59.72;36.85;;;11.90;99.90;;;;;;4973367;28;95704;-76
2023/05/07 03:22:37;;;;;;;52.38;34.30;;;11.90;99.90;;;;;;4942666;28;92447;-76
2023/05/07 03:25:04;;;;;;;54.88;34.95;;;11.90;99.90;;;;;;4974437;28;95720;-76
2023/05/07 03:27:31;;;;;;;62.75;36.08;;;11.90;99.90;;;;;;4942103;28;95713;-76
2023/05/07 03:29:58;;;;;;;55.88;36.22;;;11.90;99.90;;;;;;4974654;28;92586;-76
2023/05/07 03:32:25;;;;;;;55.05;35.53;;;11.90;99.90;;;;;;4958255;28;92508;-76
2023/05/07 03:34:52;;;;;;;53.35;35.47;;;11.80;99.90;;;;;;4974297;28;96063;-76
2023/05/07 03:37:21;;;;;;;54.20;34.65;;;11.80;99.90;;;;;;4974725;28;95449;-76
2023/05/07 03:39:48;;;;;;;55.58;37.10;;;11.80;99.90;;;;;;4958249;28;92546;-76
2023/05/07 03:42:16;;;;;;;58.08;34.47;;;11.80;99.90;;;;;;4974628;28;92904;-76
2023/05/07 03:44:43;;;;;;;50.33;31.48;;;11.80;99.90;;;;;;4972700;28;97893;-76
2023/05/07 03:47:10;;;;;;;54.15;34.63;;;11.80;99.90;;;;;;4974456;28;94681;-76
2023/05/07 03:49:38;;;;;;;44.72;31.63;;;11.80;99.90;;;;;;4974041;28;93557;-76
2023/05/07 03:52:05;;;;;;;50.78;33.22;;;11.80;99.90;;;;;;4974097;28;92600;-76
2023/05/07 03:54:33;;;;;;;49.35;32.83;;;11.80;99.90;;;;;;4957820;28;95787;-76
2023/05/07 03:57:00;;;;;;;49.95;31.50;;;11.80;99.90;;;;;;4974193;28;95646;-76
2023/05/07 03:59:27;;;;;;;46.58;31.83;;;11.80;99.90;;;;;;4974453;28;92535;-76
2023/05/07 04:01:54;;;;;;;49.75;31.75;;;11.80;99.90;;;;;;4974466;28;91775;-77
2023/05/07 04:04:23;;;;;;;44.08;32.00;;;11.80;99.90;;;;;;4974103;28;95247;-76
2023/05/07 04:06:50;;;;;;;46.05;33.13;;;11.80;99.90;;;;;;4973838;28;94946;-76
2023/05/07 04:09:17;;;;;;;42.97;31.65;;;11.80;99.90;;;;;;4972989;28;94894;-76
2023/05/07 04:11:45;;;;;;;45.17;32.17;;;11.80;99.90;;;;;;4957723;28;92549;-76
2023/05/07 04:14:12;;;;;;;44.53;32.03;;;11.80;99.90;;;;;;4973796;28;96188;-76
2023/05/07 04:16:39;;;;;;;43.78;30.73;;;11.80;99.90;;;;;;4973732;28;95639;-76
2023/05/07 04:19:07;;;;;;;44.00;30.15;;;11.80;99.90;;;;;;4957523;28;92732;-76
2023/05/07 04:21:35;;;;;;;46.42;31.80;;;11.80;99.90;;;;;;4973496;28;93559;-77
2023/05/07 04:24:06;;;;;;;45.38;30.40;;;11.80;99.90;;;;;;4973741;28;96013;-76
2023/05/07 04:26:33;;;;;;;43.60;30.40;;;11.90;99.90;;;;;;4974167;28;93433;-77
2023/05/07 04:29:01;;;;;;;39.97;27.88;;;11.90;99.90;;;;;;4973752;28;92522;-76
2023/05/07 04:31:32;;;;;;;36.08;26.98;;;11.80;99.90;;;;;;4973783;28;92511;-76
2023/05/07 04:33:59;;;;;;;40.33;28.70;;;11.80;99.90;;;;;;4972479;28;95607;-76
2023/05/07 04:36:27;;;;;;;36.45;28.38;;;11.80;99.90;;;;;;4973520;28;98030;-76
2023/05/07 04:39:02;;;;;;;35.72;27.38;;;11.80;99.90;;;;;;4974065;28;92566;-76
2023/05/07 04:41:30;;;;;;;39.40;29.00;;;11.80;99.90;;;;;;4957595;28;92622;-76
2023/05/07 04:43:58;;;;;;;34.92;26.30;;;11.80;99.90;;;;;;4975542;28;92481;-76
2023/05/07 04:46:28;;;;;;;40.30;28.10;;;11.90;99.90;;;;;;4977025;28;93028;-76
2023/05/07 04:48:56;;;;;;;37.17;27.38;;;11.90;99.90;;;;;;4977054;28;92943;-76
2023/05/07 04:51:23;;;;;;;38.97;27.65;;;11.90;99.90;;;;;;4977303;28;91925;-76
2023/05/07 04:53:50;;;;;;;35.97;27.40;;;11.90;99.90;;;;;;4960490;28;95723;-76
2023/05/07 04:56:17;;;;;;;35.28;27.10;;;11.90;99.90;;;;;;4960606;28;95732;-76
2023/05/07 04:58:46;;;;;;;33.35;25.77;;;12.00;99.90;;;;;;4943554;28;95029;-76
2023/05/07 05:01:15;;;;;;;32.70;26.27;;;12.00;99.90;;;;;;4977135;28;92603;-76
2023/05/07 05:03:42;;;;;;;31.95;25.05;;;12.00;99.90;;;;;;4944213;28;95793;-76
2023/05/07 05:06:09;;;;;;;30.48;24.20;;;12.10;99.90;;;;;;4976690;28;95702;-77
2023/05/07 05:08:36;;;;;;;32.30;25.88;;;12.20;99.90;;;;;;4976949;28;92484;-77
2023/05/07 05:11:04;;;;;;;32.05;25.83;;;12.20;99.90;;;;;;4976581;28;92495;-76
2023/05/07 05:13:33;;;;;;;31.85;25.27;;;12.20;99.90;;;;;;4960853;28;95521;-76
2023/05/07 05:16:06;;;;;;;30.83;25.55;;;12.20;99.90;;;;;;4945804;28;94397;-76
2023/05/07 05:18:33;;;;;;;31.25;25.27;;;12.20;99.90;;;;;;4960106;28;92395;-76
2023/05/07 05:21:00;;;;;;;31.15;26.35;;;12.20;99.90;;;;;;4960215;28;92463;-76
2023/05/07 05:23:27;;;;;;;32.88;25.08;;;12.20;99.90;;;;;;4975133;28;97928;-76
2023/05/07 05:25:57;;;;;;;31.92;24.23;;;12.20;99.90;;;;;;4975746;28;97990;-76
2023/05/07 05:28:27;;;;;;;28.77;22.88;;;12.30;99.90;;;;;;4960742;28;92606;-76
2023/05/07 05:30:55;;;;;;;31.00;22.42;;;12.30;99.90;;;;;;4976240;28;92560;-76
2023/05/07 05:33:23;;;;;;;30.65;24.02;;;12.40;99.90;;;;;;4960238;28;94543;-76
2023/05/07 05:35:50;;;;;;;28.40;22.98;;;12.40;99.90;;;;;;4976245;28;95431;-76
2023/05/07 05:38:18;;;;;;;29.48;22.75;;;12.50;99.90;;;;;;4977726;28;92422;-76
2023/05/07 05:40:45;;;;;;;28.38;23.27;;;12.50;99.90;;;;;;4944671;28;91790;-76
2023/05/07 05:43:13;;;;;;;27.38;23.20;;;12.50;99.90;;;;;;4976284;28;95294;-76
2023/05/07 05:45:41;;;;;;;27.23;23.25;;;12.50;99.90;;;;;;4976206;28;95525;-76
2023/05/07 05:48:08;;;;;;;26.92;23.05;;;12.60;99.90;;;;;;4958689;28;94921;-76
2023/05/07 05:50:36;;;;;;;28.38;22.17;;;12.60;99.90;;;;;;4960044;28;93094;-76
2023/05/07 05:53:04;;;;;;;30.23;22.05;;;12.60;99.90;;;;;;4975968;28;96062;-76
2023/05/07 05:55:32;;;;;;;27.33;23.52;;;12.60;99.90;;;;;;4974760;28;95347;-76
2023/05/07 05:58:01;;;;;;;26.65;23.45;;;12.60;99.90;;;;;;4960048;28;92516;-76
2023/05/07 06:00:31;;;;;;;28.48;23.90;;;12.70;99.90;;;;;;4976216;28;92683;-76
2023/05/07 06:03:02;;;;;;;29.05;22.60;;;12.70;99.90;;;;;;4975621;28;96361;-76
2023/05/07 06:05:29;;;;;;;27.95;23.52;;;12.80;99.90;;;;;;4976001;28;96275;-76
2023/05/07 06:07:57;;;;;;;28.98;23.00;;;12.80;99.90;;;;;;4975652;28;92532;-76
2023/05/07 06:10:26;;;;;;;27.48;23.90;;;12.90;99.90;;;;;;4959957;28;92570;-76
2023/05/07 06:12:54;;;;;;;27.02;23.10;;;12.90;99.90;;;;;;4958077;28;97574;-76
2023/05/07 06:15:22;;;;;;;27.52;22.85;;;13.00;99.90;;;;;;4975576;28;98193;-76
2023/05/07 06:17:50;;;;;;;30.25;21.98;;;13.10;99.90;;;;;;4975808;28;92497;-76
2023/05/07 06:20:17;;;;;;;25.75;22.70;;;13.10;99.90;;;;;;4958909;28;92446;-76
2023/05/07 06:22:44;;;;;;;29.05;23.38;;;13.20;99.90;;;;;;4975521;28;95978;-76
2023/05/07 06:25:13;;;;;;;27.27;21.98;;;13.30;99.90;;;;;;4943365;28;95485;-76
2023/05/07 06:27:42;;;;;;;24.98;22.10;;;13.40;99.90;;;;;;4975687;28;92887;-76
2023/05/07 06:30:09;;;;;;;25.85;22.65;;;13.50;99.90;;;;;;4959675;28;91744;-76
2023/05/07 06:32:37;;;;;;;28.35;23.25;;;13.50;99.90;;;;;;4959108;28;96317;-76
2023/05/07 06:35:05;;;;;;;27.90;22.50;;;13.60;99.90;;;;;;4975041;28;95481;-76
2023/05/07 06:37:34;;;;;;;27.17;23.65;;;13.70;99.90;;;;;;4974309;28;95268;-76
2023/05/07 06:40:06;;;;;;;28.02;23.00;;;13.70;99.90;;;;;;4975198;28;92523;-76
2023/05/07 06:42:38;;;;;;;29.83;23.38;;;13.70;99.90;;;;;;4975161;28;95816;-76
2023/05/07 06:45:22;;;;;;;29.08;22.80;;;13.70;99.90;;;;;;4975201;28;94885;-76
2023/05/07 06:47:49;;;;;;;27.63;22.23;;;13.70;99.90;;;;;;4975373;28;92487;-76
2023/05/07 06:50:16;;;;;;;27.50;22.52;;;13.70;99.90;;;;;;4975112;28;92503;-76
2023/05/07 06:52:44;;;;;;;27.10;23.95;;;13.60;99.90;;;;;;4974954;28;95868;-76
2023/05/07 06:55:11;;;;;;;29.60;23.80;;;13.60;99.90;;;;;;4975096;28;95553;-76
2023/05/07 06:57:38;;;;;;;29.60;24.38;;;13.60;99.90;;;;;;4959117;28;92459;-77
2023/05/07 07:00:08;;;;;;;25.70;22.92;;;13.50;99.90;;;;;;4974978;28;92499;-76
2023/05/07 07:02:44;;;;;;;28.63;24.25;;;13.50;99.90;;;;;;4973630;28;98037;-76
2023/05/07 07:05:12;;;;;;;28.27;23.58;;;13.50;99.90;;;;;;4974553;28;96309;-76
2023/05/07 07:07:39;;;;;;;30.42;23.98;;;13.50;99.90;;;;;;4976124;28;93050;-76
2023/05/07 07:10:07;;;;;;;28.25;22.95;;;13.50;99.90;;;;;;4958647;28;92568;-76
2023/05/07 07:12:34;;;;;;;29.45;26.33;;;13.50;99.90;;;;;;4974698;28;95705;-76
2023/05/07 07:15:02;;;;;;;30.58;24.05;;;13.50;99.90;;;;;;4974607;28;95511;-76
2023/05/07 07:17:29;;;;;;;29.67;23.02;;;13.50;99.90;;;;;;4974749;28;92640;-76
2023/05/07 07:19:56;;;;;;;28.88;23.98;;;13.50;99.90;;;;;;4958458;28;91821;-76
2023/05/07 07:22:23;;;;;;;29.85;25.15;;;13.50;99.90;;;;;;4974387;28;96490;-76
2023/05/07 07:24:51;;;;;;;29.95;23.90;;;13.60;99.90;;;;;;4958313;28;95633;-76
2023/05/07 07:27:18;;;;;;;30.98;25.45;;;13.70;99.90;;;;;;4957337;28;94918;-76
2023/05/07 07:29:45;;;;;;;27.05;20.23;;;13.80;99.90;;;;;;4942350;28;92488;-77
2023/05/07 07:32:12;;;;;;;27.50;22.85;;;13.80;99.90;;;;;;4958131;28;95690;-76
2023/05/07 07:34:39;;;;;;;27.05;22.48;;;14.00;99.90;;;;;;4958389;28;95429;-77
2023/05/07 07:37:07;;;;;;;27.58;22.65;;;14.20;99.90;;;;;;4974136;28;93356;-76
2023/05/07 07:39:37;;;;;;;25.58;21.40;;;14.30;99.90;;;;;;4974735;28;92553;-76
2023/05/07 07:42:06;;;;;;;25.23;20.52;;;14.50;99.90;;;;;;4974425;28;95663;-76
2023/05/07 07:44:33;;;;;;;27.23;22.23;;;14.60;99.90;;;;;;4958336;28;94382;-76
2023/05/07 07:47:05;;;;;;;25.15;22.30;;;14.70;99.90;;;;;;4958858;28;92594;-76
2023/05/07 07:49:32;;;;;;;24.77;20.67;;;14.80;99.90;;;;;;4974175;28;92472;-76
2023/05/07 07:52:03;;;;;;;25.85;22.33;;;15.10;99.90;;;;;;4972922;28;98071;-76
2023/05/07 07:54:32;;;;;;;24.23;20.08;;;15.20;99.90;;;;;;4957907;28;97855;-76
2023/05/07 07:57:01;;;;;;;23.85;20.33;;;15.30;99.90;;;;;;4974322;28;92595;-76
2023/05/07 07:59:31;;;;;;;24.67;21.70;;;15.30;99.90;;;;;;4974046;28;92472;-76
2023/05/07 08:01:58;;;;;;;23.85;21.23;;;15.50;99.90;;;;;;4973671;28;95555;-76
2023/05/07 08:04:27;;;;;;;24.77;21.25;;;15.60;99.90;;;;;;4973816;28;95062;-76
2023/05/07 08:06:56;;;;;;;21.65;19.35;;;15.60;99.90;;;;;;4974223;28;92378;-76
2023/05/07 08:09:23;;;;;;;21.55;18.90;;;15.60;99.90;;;;;;4958230;28;91805;-76
2023/05/07 08:11:52;;;;;;;23.77;21.15;;;15.60;99.90;;;;;;4973913;28;95282;-76
2023/05/07 08:14:19;;;;;;;21.80;18.92;;;15.60;99.90;;;;;;4973837;28;95443;-76
2023/05/07 08:16:47;;;;;;;23.13;19.92;;;15.70;99.90;;;;;;4956730;28;94921;-76
2023/05/07 08:19:14;;;;;;;23.58;20.38;;;15.90;99.90;;;;;;4972796;28;92639;-76
2023/05/07 08:21:41;;;;;;;23.35;20.77;;;16.10;99.90;;;;;;4975311;28;93173;-76
2023/05/07 08:24:11;;;;;;;24.63;20.67;;;16.30;99.90;;;;;;4973677;28;95449;-76
2023/05/07 08:26:39;;;;;;;21.05;18.80;;;16.40;99.90;;;;;;4957772;28;92512;-76
2023/05/07 08:29:08;;;;;;;24.10;20.25;;;16.40;99.90;;;;;;4974070;28;92468;-76
2023/05/07 08:31:35;;;;;;;21.17;17.42;;;16.40;99.90;;;;;;4973456;28;95657;-76
2023/05/07 08:34:03;;;;;;;23.25;19.13;;;16.30;99.90;;;;;;4973928;28;95250;-76
2023/05/07 08:36:30;;;;;;;19.90;17.67;;;16.40;99.90;;;;;;4957583;28;93050;-76
2023/05/07 08:38:57;;;;;;;21.85;19.60;;;16.60;99.90;;;;;;4973968;28;93137;-76
2023/05/07 08:41:24;;;;;;;22.02;19.70;;;16.70;99.90;;;;;;4972373;28;95657;-76
2023/05/07 08:43:51;;;;;;;21.73;19.52;;;16.80;99.90;;;;;;4973593;28;97877;-76
2023/05/07 08:46:21;;;;;;;22.08;18.67;;;17.00;99.90;;;;;;4957221;28;92556;-76
2023/05/07 08:48:52;;;;;;;20.45;18.33;;;17.10;99.90;;;;;;4958001;28;92523;-76
2023/05/07 08:51:20;;;;;;;20.95;18.75;;;17.20;99.90;;;;;;4973097;28;95788;-76
2023/05/07 08:53:49;;;;;;;20.15;18.00;;;17.40;99.90;;;;;;4973472;28;95686;-77
2023/05/07 08:56:22;;;;;;;23.00;20.20;;;17.40;99.90;;;;;;4958073;28;92697;-77
2023/05/07 08:58:51;;;;;;;21.67;19.52;;;17.60;99.90;;;;;;4957952;28;91774;-77
2023/05/07 09:01:18;;;;;;;21.02;18.83;;;17.90;99.90;;;;;;4973305;28;95967;-77
2023/05/07 09:03:51;;;;;;;19.60;17.52;;;18.20;99.90;;;;;;4973548;28;95013;-77
2023/05/07 09:06:18;;;;;;;20.65;18.45;;;18.20;99.90;;;;;;4972362;28;94970;-76
2023/05/07 09:08:50;;;;;;;19.83;17.70;;;18.30;99.90;;;;;;4957076;28;92563;-77
2023/05/07 09:11:24;;;;;;;21.08;18.92;;;18.40;99.90;;;;;;4956981;28;95359;-76
2023/05/07 09:13:59;;;;;;;21.52;19.33;;;18.30;99.90;;;;;;4973394;28;95317;-77
2023/05/07 09:16:28;;;;;;;19.55;17.25;;;18.20;99.90;;;;;;4956983;28;92533;-76
2023/05/07 09:18:58;;;;;;;21.35;19.08;;;18.10;99.90;;;;;;4956641;28;92549;-76
2023/05/07 09:21:26;;;;;;;20.65;18.45;;;18.10;99.90;;;;;;4974255;28;93260;-77
2023/05/07 09:23:56;;;;;;;20.83;18.73;;;18.30;99.90;;;;;;4973547;28;95453;-77
2023/05/07 09:26:32;;;;;;;20.10;18.00;;;18.40;99.90;;;;;;4973128;28;92572;-77
2023/05/07 09:29:00;;;;;;;19.85;17.83;;;18.50;99.90;;;;;;4973493;28;92559;-76
2023/05/07 09:31:27;;;;;;;19.33;17.42;;;18.50;99.90;;;;;;4974377;28;98013;-77
2023/05/07 09:33:56;;;;;;;20.40;18.30;;;18.40;99.90;;;;;;4976301;28;98107;-76
2023/05/07 09:36:27;;;;;;;16.08;14.23;;;18.30;99.90;;;;;;4976368;28;92545;-76
2023/05/07 09:38:54;;;;;;;18.08;16.27;;;18.50;99.90;;;;;;4976466;28;92563;-76
2023/05/07 09:41:22;;;;;;;18.38;16.63;;;18.40;99.90;;;;;;4976306;28;95538;-76
2023/05/07 09:44:05;;;;;;;19.88;17.77;;;18.60;99.90;;;;;;4962083;28;96143;-76
2023/05/07 09:46:41;;;;;;;19.80;17.73;;;18.60;99.90;;;;;;4976173;28;92756;-76
2023/05/07 09:49:21;;;;;;;16.75;15.18;;;18.80;99.90;;;;;;4977054;28;91746;-77
2023/05/07 09:51:52;;;;;;;18.00;16.30;;;18.90;99.90;;;;;;4976079;28;95489;-77
2023/05/07 09:54:23;;;;;;;17.50;15.80;;;19.00;99.90;;;;;;4960214;28;94328;-77
2023/05/07 09:56:53;;;;;;;19.98;17.98;;;19.10;99.90;;;;;;4959155;28;94892;-76
2023/05/07 09:59:25;;;;;;;17.20;15.50;;;19.20;99.90;;;;;;4960359;28;92569;-76
2023/05/07 10:01:58;;;;;;;18.25;16.45;;;19.30;99.90;;;;;;4975915;28;95231;-77
2023/05/07 10:04:27;;;;;;;18.92;16.90;;;19.30;99.90;;;;;;4959883;28;95804;-77
2023/05/07 10:06:55;;;;;;;18.70;16.88;;;19.40;99.90;;;;;;4976051;28;92913;-77
2023/05/07 10:09:23;;;;;;;18.27;16.48;;;19.70;99.90;;;;;;4975779;28;92572;-77
2023/05/07 10:11:51;;;;;;;17.40;15.60;;;19.90;99.90;;;;;;4975378;28;95485;-77
2023/05/07 10:14:21;;;;;;;18.95;16.92;;;19.90;99.90;;;;;;4960109;28;95889;-77
2023/05/07 10:16:49;;;;;;;17.23;15.55;;;19.70;99.90;;;;;;4975632;28;92571;-77
2023/05/07 10:19:18;;;;;;;19.10;17.35;;;19.70;99.90;;;;;;4974935;28;92560;-77
2023/05/07 10:22:04;;;;;;;18.88;17.08;;;19.60;99.90;;;;;;4958525;28;97955;-76
2023/05/07 10:24:36;;;;;;;16.37;14.73;;;19.40;99.90;;;;;;4975212;28;97880;-77
2023/05/07 10:27:10;;;;;;;18.25;16.45;;;19.30;99.90;;;;;;4960012;28;92551;-77
2023/05/07 10:29:52;;;;;;;18.40;16.60;;;19.30;99.90;;;;;;4975372;28;92617;-77
2023/05/07 10:32:38;;;;;;;17.58;15.98;;;19.40;99.90;;;;;;4975219;28;95480;-77
2023/05/07 10:35:15;;;;;;;18.30;16.58;;;19.40;99.90;;;;;;4975408;28;95199;-76
2023/05/07 10:37:43;;;;;;;18.00;16.33;;;19.60;99.90;;;;;;4975209;28;92465;-77
2023/05/07 10:40:11;;;;;;;21.33;16.30;;;19.60;99.90;;;;;;4975765;28;91886;-77
2023/05/07 10:42:52;;;;;;;18.23;16.52;;;19.50;99.90;;;;;;4958227;28;94228;-76
2023/05/07 10:45:20;;;;;;;18.02;16.23;;;19.60;99.90;;;;;;4975212;28;95535;-76
2023/05/07 10:48:09;;;;;;;20.00;18.13;;;19.30;99.90;;;;;;4958143;28;95670;-76
2023/05/07 10:51:20;;;;;;;18.27;16.45;;;19.30;99.90;;;;;;4975179;28;92564;-77
2023/05/07 10:53:48;;;;;;;17.77;15.98;;;19.10;99.90;;;;;;4943055;28;94669;-76
2023/05/07 10:56:20;;;;;;;18.15;16.45;;;19.00;99.90;;;;;;4975061;28;95701;-77
2023/05/07 10:59:30;;;;;;;18.02;16.35;;;19.00;99.90;;;;;;4976472;28;92394;-76
2023/05/07 11:02:05;;;;;;;17.33;15.73;;;19.00;99.90;;;;;;4975096;28;92539;-77
2023/05/07 11:04:38;;;;;;;18.15;16.45;;;19.00;99.90;;;;;;4959589;28;95534;-77
2023/05/07 11:07:30;;;;;;;18.35;16.65;;;19.00;99.90;;;;;;4960229;28;94354;-76
2023/05/07 11:10:08;;;;;;;18.42;16.73;;;19.20;99.90;;;;;;4975067;28;92979;-76
2023/05/07 11:12:53;;;;;;;18.10;16.40;;;19.10;99.90;;;;;;4974660;28;92492;-76
2023/05/07 11:15:43;;;;;;;18.80;17.10;;;19.10;99.90;;;;;;4973628;28;97909;-76
2023/05/07 11:18:18;;;;;;;18.42;16.65;;;19.30;99.90;;;;;;4959447;28;97737;-76
2023/05/07 11:20:56;;;;;;;19.17;17.15;;;19.30;99.90;;;;;;4974278;28;92554;-76
2023/05/07 11:23:55;;;;;;;17.08;15.48;;;19.40;99.90;;;;;;4975922;28;92497;-76
2023/05/07 11:26:44;;;;;;;18.25;16.45;;;19.50;99.90;;;;;;4974641;28;95677;-76
2023/05/07 11:29:13;;;;;;;16.70;15.18;;;19.50;99.90;;;;;;4974490;28;95712;-76
2023/05/07 11:31:42;;;;;;;16.40;13.73;;;19.50;99.90;;;;;;4974554;28;92556;-76
2023/05/07 11:34:11;;;;;;;16.98;15.27;;;19.30;99.90;;;;;;4974922;28;91755;-76
2023/05/07 11:36:43;;;;;;;15.68;14.27;;;19.20;99.90;;;;;;4974035;28;95925;-77
2023/05/07 11:39:34;;;;;;;17.23;15.63;;;19.30;99.90;;;;;;4974527;28;95416;-77
2023/05/07 11:42:01;;;;;;;17.95;16.35;;;19.40;99.90;;;;;;4973498;28;94946;-77
2023/05/07 11:44:45;;;;;;;18.42;16.80;;;19.30;99.90;;;;;;4958161;28;98509;-77
2023/05/07 11:47:18;;;;;;;17.38;15.82;;;19.30;99.90;;;;;;4974603;28;93170;-76
2023/05/07 11:49:50;;;;;;;16.98;15.38;;;19.30;99.90;;;;;;4973954;28;97383;-77
2023/05/07 11:52:17;;;;;;;17.27;15.77;;;19.20;99.90;;;;;;4975901;28;92679;-77
2023/05/07 11:54:55;;;;;;;16.48;14.98;;;19.10;99.90;;;;;;4974454;28;92526;-76
2023/05/07 11:57:23;;;;;;;15.50;14.10;;;19.10;99.90;;;;;;4974319;28;92482;-76
2023/05/07 11:59:58;;;;;;;16.40;14.90;;;19.10;99.90;;;;;;4974093;28;98313;-76
2023/05/07 12:02:25;;;;;;;17.08;15.50;;;19.10;99.90;;;;;;4974543;28;92466;-76
2023/05/07 12:04:53;;;;;;;14.40;13.02;;;19.10;99.90;;;;;;4974158;28;92545;-76
2023/05/07 12:07:21;;;;;;;17.27;15.75;;;19.20;99.90;;;;;;4974117;28;94975;-76
2023/05/07 12:09:48;;;;;;;17.42;15.82;;;19.40;99.90;;;;;;4975026;28;95452;-76
2023/05/07 12:12:18;;;;;;;16.80;15.30;;;19.70;99.90;;;;;;4973913;28;92456;-76
2023/05/07 12:14:46;;;;;;;17.65;16.05;;;20.00;99.90;;;;;;4957864;28;92525;-76
2023/05/07 12:17:14;;;;;;;16.40;14.85;;;20.30;99.90;;;;;;4975083;28;93292;-76
2023/05/07 12:19:43;;;;;;;17.52;15.77;;;20.40;99.90;;;;;;4974546;28;93173;-76
2023/05/07 12:22:10;;;;;;;16.33;14.95;;;20.50;99.90;;;;;;4973770;28;92536;-76
2023/05/07 12:24:43;;;;;;;15.18;13.88;;;20.70;99.90;;;;;;4975809;28;91768;-76
2023/05/07 12:27:10;;;;;;;16.83;15.25;;;20.90;99.90;;;;;;4974912;28;93621;-76
2023/05/07 12:29:39;;;;;;;15.80;14.30;;;20.90;99.90;;;;;;4973807;28;92640;-76
2023/05/07 12:32:12;;;;;;;15.77;14.38;;;20.90;99.90;;;;;;4973856;28;94739;-76
2023/05/07 12:34:39;;;;;;;17.02;15.50;;;20.80;99.90;;;;;;4973839;28;93202;-76
2023/05/07 12:37:11;;;;;;;16.10;14.60;;;20.60;99.90;;;;;;4975106;28;93199;-76
2023/05/07 12:39:38;;;;;;;14.75;13.52;;;20.60;99.90;;;;;;4973401;28;106726;-76